x

Southeast Bering Sea -205nm Wnw Of Dutch Harbor, Ak (46073) Wave Buoy

5:50 - Fri 29th Aug 2014 All times are UTC.

  • Sig Wave height 4.3ft
  • Swell Direction
  • Peak Period 6s
  • Average Period 5s
  • Wind
    16mph, 18mph gusts
  • Sea Temp 55°f
  • Aire Temp 54°f
  • Sea Pressure 1006mb

More Historic Weather Station data

Upgrade to MSW Pro to gain access to the past 30 days of data for over 8000 Wavebouys and Weather Stations around the globe.

Join Pro

Comparision Forecast

View Surf forecast
   
vie 08/29 5:50 4.5ft 6s 5s 16 18 mph 1006mb 55f 54f
4:50 4.5ft 6s 5s 16 18 mph 1006.2mb 55f 54f
3:50 3.5ft 5s 5s 18 20 mph 1006.6mb 55f 54f
2:50 3.5ft 5s 5s 13 18 mph 1007.1mb 55f 54f
1:50 3ft 6s 4s 16 18 mph 1007.4mb 55f 54f
12:50 2.5ft 5s 4s 13
mph
1008.1mb 55f 54f
11:50 3ft 5s 5s 13 16 mph 1008.3mb 55f 54f
10:50 3.5ft 6s 5s 16 18 mph 1008.4mb 55f 54f
9:50 3.5ft 6s 5s 16 18 mph 1008.4mb 55f 54f
8:50 4ft 6s 5s 11 16 mph 1008.4mb 55f 54f
7:50 4.5ft 6s 5s 13 16 mph 1008.7mb 55f 53f
6:50 4ft 6s 5s 16 18 mph 1008.7mb 55f 53f
5:50 4ft 5s 4s 18 20 mph 1008.1mb 55f 53f
4:50 3.5ft 6s 5s 18 20 mph 1009.4mb 55f 53f
3:50 3.5ft 5s 4s 16 18 mph 1009.2mb 55f 53f
2:50 3.5ft 5s 5s 16 18 mph 1010.3mb 55f 53f
1:50 3.5ft 5s 4s 18 20 mph 1009.8mb 55f 53f
12:50 3.5ft 5s 4s 18 20 mph 1011mb 55f 53f
jue 08/28 11:50 3.5ft 5s 4s 16 18 mph 1011.1mb 55f 53f
10:50 3.5ft 6s 5s 18 20 mph 1011.4mb 55f 54f
9:50 3.5ft 7s 5s 16 18 mph 1012.1mb 55f 54f
8:50 3.5ft 7s 5s 13 16 mph 1012.1mb 55f 54f
7:50 3.5ft 7s 5s 13 16 mph 1012.3mb 55f 54f
6:50 3.5ft 7s 5s 13 16 mph 1012.5mb 55f 53f
5:50 3.5ft 7s 5s 11 13 mph 1012.4mb 55f 53f
4:50 3.5ft 7s 5s 11 13 mph 1012.5mb 55f 53f
3:50 3.5ft 7s 5s 11 13 mph 1012.5mb 55f 53f
2:50 3.5ft 7s 6s 11
mph
1013.2mb 55f 53f
1:50 3.5ft 7s 6s 13
mph
1013mb 55f 53f
12:50 3.5ft 7s 6s 11 13 mph 1013.4mb 55f 53f
11:50 3.5ft 6s 5s 9 11 mph 1013.7mb 55f 54f
10:50 3.5ft 7s 6s 9 11 mph 1014mb 55f 54f
9:50 4ft 6s 6s 9 11 mph 1014.4mb 55f 54f
8:50 4.5ft 6s 6s 7 9 mph 1014.6mb 55f 54f
7:50 4.5ft 6s 5s 4 7 mph 1014.3mb 55f 54f
6:50 4.5ft 6s 6s 4
mph
1014.2mb 55f 54f
5:50 4.5ft 6s 5s 2
mph
1014.3mb 55f 54f
4:50 4ft 6s 5s 4
mph
1014.3mb 55f 54f
3:50 4ft 6s 5s 7
mph
1014.1mb 55f 54f
2:50 4ft 7s 5s 9
mph
1013.9mb 55f 54f
1:50 4ft 6s 5s 9 11 mph 1013.4mb 55f 54f
12:50 4.5ft 6s 5s 9 11 mph 1013.4mb 55f 54f
mié 08/27 11:50 5ft 6s 5s 11 16 mph 1013mb 55f 54f
10:50 5ft 6s 5s 13 16 mph 1012.3mb 55f 54f
9:50 5.5ft 6s 5s 16 18 mph 1011.8mb 55f 54f
8:50 6ft 6s 5s 16 18 mph 1011.4mb 55f 54f
7:50 7ft 7s 6s 20 22 mph 1010.4mb 55f 54f
6:50 6ft 6s 6s 18 20 mph 1009.5mb 55f 54f
5:50 6.5ft 6s 5s 20 25 mph 1008.9mb 55f 54f
4:50 6ft 6s 5s 22 29 mph 1008.4mb 55f 54f
3:50 6ft 6s 5s 22 27 mph 1007.8mb 55f 54f
2:50 5.5ft 7s 5s 22 27 mph 1007.3mb 55f 54f
1:50 5ft 7s 5s 22 29 mph 1007.2mb 55f 54f
12:50 5ft 8s 5s 20 22 mph 1007.1mb 55f 54f
11:50 5ft 8s 5s 18 22 mph 1007.1mb 55f 54f
10:50 5ft 6s 5s 20 25 mph 1007mb 55f 54f
9:50 5.5ft 8s 5s 18 22 mph 1007.1mb 55f 54f
8:50 5ft 8s 5s 20 22 mph 1007mb 55f 54f
7:50 5ft 6s 5s 20 22 mph 1006.9mb 55f 54f
6:50 6ft 8s 5s 20 25 mph 1007.1mb 55f 54f
5:50 6ft 8s 6s 20 25 mph 1006.9mb 55f 54f
4:50 6ft 7s 6s 20 25 mph 1007.4mb 55f 54f
3:50 5.5ft 10s 6s 20 22 mph 1007.8mb 55f 54f
2:50 4.5ft 5s 5s 18 20 mph 1008.1mb 55f 54f
1:50 4.5ft 11s 5s 16 20 mph 1008.3mb 55f 54f
12:50 3.5ft 6s 5s 18 20 mph 1008.5mb 55f 54f
mar 08/26 11:50 3.5ft 6s 5s 16 18 mph 1008.8mb 55f 54f
10:50 3.5ft 6s 5s 13 16 mph 1009.1mb 55f 54f
9:50 3.5ft 6s 5s 11 13 mph 1009.2mb 55f 54f
8:50 4ft 6s 5s 7 9 mph 1009.1mb 55f 54f
7:50 4.5ft 6s 5s 7 9 mph 1009mb 55f 54f
6:50 4.5ft 6s 5s 7 9 mph 1009.2mb 55f 53f
5:50 4.5ft 6s 5s 11
mph
1009.1mb 55f 53f
4:50 5ft 6s 5s 13 16 mph 1009.2mb 55f 53f
3:50 5ft 5s 5s 16 18 mph 1009.6mb 55f 53f
2:50 4.5ft 5s 5s 18 22 mph 1009.6mb 55f 54f
1:50 4ft 7s 5s 18 25 mph 1010.5mb 55f 54f
12:50 3.5ft 7s 5s 20 22 mph 1011.1mb 54f 54f
11:50 3.5ft 7s 5s 20 25 mph 1011.6mb 54f 53f
10:50 3.5ft 7s 4s 18 22 mph 1013.1mb 54f 52f
9:50 3.5ft 7s 5s 20 22 mph 1013.7mb 54f 53f
8:50 3.5ft 8s 5s 16 18 mph 1014.4mb 55f 54f
7:50 3.5ft 8s 5s 13 16 mph 1015.1mb 55f 54f
6:50 3.5ft 8s 6s 11 13 mph 1015.3mb 55f 54f
5:50 3.5ft 7s 6s 11 13 mph 1015.6mb 55f 54f
4:50 4ft 8s 6s 11 13 mph 1016.1mb 55f 54f
3:50 4ft 7s 6s 7 9 mph 1016.7mb 55f 54f
2:50 4.5ft 7s 6s 7 9 mph 1016.8mb 55f 54f
1:50 5ft 8s 6s 9 11 mph 1017.1mb 55f 54f
12:50 5ft 8s 6s 9 11 mph 1017.6mb 55f 54f
lun 08/25 11:50 5ft 8s 6s 9
mph
1017.6mb 54f 54f
10:50 5ft 8s 6s 9 11 mph 1017.9mb 54f 54f
9:50 5ft 7s 6s 9 11 mph 1018mb 54f 54f
8:50 5ft 8s 6s 7 9 mph 1017.7mb 54f 54f
7:50 6ft 8s 6s 11 13 mph 1017.6mb 54f 54f